sensor_id;sensor_type;location;lat;lon;timestamp;temperature;humidity
5130;DHT22;2583;50.946;6.954;2022-10-16T00:01:17;15.70;99.90
5130;DHT22;2583;50.946;6.954;2022-10-16T00:03:45;15.70;99.90
5130;DHT22;2583;50.946;6.954;2022-10-16T00:06:13;15.70;99.90
5130;DHT22;2583;50.946;6.954;2022-10-16T00:08:40;15.70;99.90
5130;DHT22;2583;50.946;6.954;2022-10-16T00:11:15;15.70;99.90
5130;DHT22;2583;50.946;6.954;2022-10-16T00:13:43;15.70;99.90
5130;DHT22;2583;50.946;6.954;2022-10-16T00:16:11;15.70;99.90
5130;DHT22;2583;50.946;6.954;2022-10-16T00:18:39;15.70;99.90
5130;DHT22;2583;50.946;6.954;2022-10-16T00:21:20;15.70;99.90
5130;DHT22;2583;50.946;6.954;2022-10-16T00:24:11;15.70;99.90
5130;DHT22;2583;50.946;6.954;2022-10-16T00:26:38;15.70;99.90
5130;DHT22;2583;50.946;6.954;2022-10-16T00:29:06;15.60;99.90
5130;DHT22;2583;50.946;6.954;2022-10-16T00:31:33;15.60;99.90
5130;DHT22;2583;50.946;6.954;2022-10-16T00:34:00;15.60;99.90
5130;DHT22;2583;50.946;6.954;2022-10-16T00:36:27;15.60;99.90
5130;DHT22;2583;50.946;6.954;2022-10-16T00:38:56;15.60;99.90
5130;DHT22;2583;50.946;6.954;2022-10-16T00:41:24;15.60;99.90
5130;DHT22;2583;50.946;6.954;2022-10-16T00:43:52;15.60;99.90
5130;DHT22;2583;50.946;6.954;2022-10-16T00:46:29;15.50;99.90
5130;DHT22;2583;50.946;6.954;2022-10-16T00:49:17;15.50;99.90
5130;DHT22;2583;50.946;6.954;2022-10-16T00:51:51;15.40;99.90
5130;DHT22;2583;50.946;6.954;2022-10-16T00:54:29;15.40;99.90
5130;DHT22;2583;50.946;6.954;2022-10-16T00:56:59;15.40;99.90
5130;DHT22;2583;50.946;6.954;2022-10-16T00:59:35;15.40;99.90
5130;DHT22;2583;50.946;6.954;2022-10-16T01:02:04;15.40;99.90
5130;DHT22;2583;50.946;6.954;2022-10-16T01:04:39;15.40;99.90
5130;DHT22;2583;50.946;6.954;2022-10-16T01:07:10;15.30;99.90
5130;DHT22;2583;50.946;6.954;2022-10-16T01:09:51;15.30;99.90
5130;DHT22;2583;50.946;6.954;2022-10-16T01:18:00;15.30;99.90
5130;DHT22;2583;50.946;6.954;2022-10-16T01:20:35;15.30;99.90
5130;DHT22;2583;50.946;6.954;2022-10-16T01:23:21;15.30;99.90
5130;DHT22;2583;50.946;6.954;2022-10-16T01:29:16;15.30;99.90
5130;DHT22;2583;50.946;6.954;2022-10-16T01:31:49;15.30;99.90
5130;DHT22;2583;50.946;6.954;2022-10-16T01:34:22;15.30;99.90
5130;DHT22;2583;50.946;6.954;2022-10-16T01:36:55;15.30;99.90
5130;DHT22;2583;50.946;6.954;2022-10-16T01:39:26;15.30;99.90
5130;DHT22;2583;50.946;6.954;2022-10-16T01:42:18;15.30;99.90
5130;DHT22;2583;50.946;6.954;2022-10-16T01:44:47;15.30;99.90
5130;DHT22;2583;50.946;6.954;2022-10-16T01:47:15;15.30;99.90
5130;DHT22;2583;50.946;6.954;2022-10-16T01:49:44;15.30;99.90
5130;DHT22;2583;50.946;6.954;2022-10-16T01:52:18;15.30;99.90
5130;DHT22;2583;50.946;6.954;2022-10-16T01:54:47;15.30;99.90
5130;DHT22;2583;50.946;6.954;2022-10-16T01:57:16;15.30;99.90
5130;DHT22;2583;50.946;6.954;2022-10-16T01:59:47;15.30;99.90
5130;DHT22;2583;50.946;6.954;2022-10-16T02:02:17;15.30;99.90
5130;DHT22;2583;50.946;6.954;2022-10-16T02:04:47;15.40;99.90
5130;DHT22;2583;50.946;6.954;2022-10-16T02:07:15;15.30;99.90
5130;DHT22;2583;50.946;6.954;2022-10-16T02:09:43;15.40;99.90
5130;DHT22;2583;50.946;6.954;2022-10-16T02:12:25;15.40;99.90
5130;DHT22;2583;50.946;6.954;2022-10-16T02:14:54;15.40;99.90
5130;DHT22;2583;50.946;6.954;2022-10-16T02:17:21;15.40;99.90
5130;DHT22;2583;50.946;6.954;2022-10-16T02:19:50;15.40;99.90
5130;DHT22;2583;50.946;6.954;2022-10-16T02:22:42;15.40;99.90
5130;DHT22;2583;50.946;6.954;2022-10-16T02:25:17;15.40;99.90
5130;DHT22;2583;50.946;6.954;2022-10-16T02:28:06;15.40;99.90
5130;DHT22;2583;50.946;6.954;2022-10-16T02:30:47;15.50;99.90
5130;DHT22;2583;50.946;6.954;2022-10-16T02:33:16;15.50;99.90
5130;DHT22;2583;50.946;6.954;2022-10-16T02:35:45;15.50;99.90
5130;DHT22;2583;50.946;6.954;2022-10-16T02:38:14;15.40;99.90
5130;DHT22;2583;50.946;6.954;2022-10-16T02:40:42;15.50;99.90
5130;DHT22;2583;50.946;6.954;2022-10-16T02:43:09;15.50;99.90
5130;DHT22;2583;50.946;6.954;2022-10-16T02:45:36;15.50;99.90
5130;DHT22;2583;50.946;6.954;2022-10-16T02:48:03;15.50;99.90
5130;DHT22;2583;50.946;6.954;2022-10-16T02:50:30;15.60;99.90
5130;DHT22;2583;50.946;6.954;2022-10-16T02:52:57;15.60;99.90
5130;DHT22;2583;50.946;6.954;2022-10-16T02:55:24;15.60;99.90
5130;DHT22;2583;50.946;6.954;2022-10-16T02:57:50;15.60;99.90
5130;DHT22;2583;50.946;6.954;2022-10-16T03:00:17;15.60;99.90
5130;DHT22;2583;50.946;6.954;2022-10-16T03:02:44;15.50;99.90
5130;DHT22;2583;50.946;6.954;2022-10-16T03:05:11;15.60;99.90
5130;DHT22;2583;50.946;6.954;2022-10-16T03:07:38;15.60;99.90
5130;DHT22;2583;50.946;6.954;2022-10-16T03:10:05;15.60;99.90
5130;DHT22;2583;50.946;6.954;2022-10-16T03:12:32;15.60;99.90
5130;DHT22;2583;50.946;6.954;2022-10-16T03:14:59;15.50;99.90
5130;DHT22;2583;50.946;6.954;2022-10-16T03:17:26;15.50;99.90
5130;DHT22;2583;50.946;6.954;2022-10-16T03:19:53;15.50;99.90
5130;DHT22;2583;50.946;6.954;2022-10-16T03:22:20;15.40;99.90
5130;DHT22;2583;50.946;6.954;2022-10-16T03:24:46;15.40;99.90
5130;DHT22;2583;50.946;6.954;2022-10-16T03:27:13;15.40;99.90
5130;DHT22;2583;50.946;6.954;2022-10-16T03:29:40;15.40;99.90
5130;DHT22;2583;50.946;6.954;2022-10-16T03:32:06;15.40;99.90
5130;DHT22;2583;50.946;6.954;2022-10-16T03:34:33;15.40;99.90
5130;DHT22;2583;50.946;6.954;2022-10-16T03:37:00;15.30;99.90
5130;DHT22;2583;50.946;6.954;2022-10-16T03:39:27;15.30;99.90
5130;DHT22;2583;50.946;6.954;2022-10-16T03:41:54;15.30;99.90
5130;DHT22;2583;50.946;6.954;2022-10-16T03:44:20;15.30;99.90
5130;DHT22;2583;50.946;6.954;2022-10-16T03:46:48;15.30;99.90
5130;DHT22;2583;50.946;6.954;2022-10-16T03:49:14;15.40;99.90
5130;DHT22;2583;50.946;6.954;2022-10-16T03:51:41;15.30;99.90
5130;DHT22;2583;50.946;6.954;2022-10-16T03:54:10;15.30;99.90
5130;DHT22;2583;50.946;6.954;2022-10-16T03:56:37;15.30;99.90
5130;DHT22;2583;50.946;6.954;2022-10-16T03:59:03;15.30;99.90
5130;DHT22;2583;50.946;6.954;2022-10-16T04:01:30;15.30;99.90
5130;DHT22;2583;50.946;6.954;2022-10-16T04:03:57;15.30;99.90
5130;DHT22;2583;50.946;6.954;2022-10-16T04:06:24;15.30;99.90
5130;DHT22;2583;50.946;6.954;2022-10-16T04:08:50;15.30;99.90
5130;DHT22;2583;50.946;6.954;2022-10-16T04:11:17;15.40;99.90
5130;DHT22;2583;50.946;6.954;2022-10-16T04:13:44;15.30;99.90
5130;DHT22;2583;50.946;6.954;2022-10-16T04:16:10;15.30;99.90
5130;DHT22;2583;50.946;6.954;2022-10-16T04:18:37;15.40;99.90
5130;DHT22;2583;50.946;6.954;2022-10-16T04:21:05;15.40;99.90
5130;DHT22;2583;50.946;6.954;2022-10-16T04:23:32;15.40;99.90
5130;DHT22;2583;50.946;6.954;2022-10-16T04:26:00;15.40;99.90
5130;DHT22;2583;50.946;6.954;2022-10-16T04:28:27;15.30;99.90
5130;DHT22;2583;50.946;6.954;2022-10-16T04:30:54;15.30;99.90
5130;DHT22;2583;50.946;6.954;2022-10-16T04:33:21;15.30;99.90
5130;DHT22;2583;50.946;6.954;2022-10-16T04:35:48;15.30;99.90
5130;DHT22;2583;50.946;6.954;2022-10-16T04:38:15;15.30;99.90
5130;DHT22;2583;50.946;6.954;2022-10-16T04:40:42;15.30;99.90
5130;DHT22;2583;50.946;6.954;2022-10-16T04:43:09;15.30;99.90
5130;DHT22;2583;50.946;6.954;2022-10-16T04:45:36;15.30;99.90
5130;DHT22;2583;50.946;6.954;2022-10-16T04:48:03;15.30;99.90
5130;DHT22;2583;50.946;6.954;2022-10-16T04:50:29;15.30;99.90
5130;DHT22;2583;50.946;6.954;2022-10-16T04:52:56;15.30;99.90
5130;DHT22;2583;50.946;6.954;2022-10-16T04:55:23;15.30;99.90
5130;DHT22;2583;50.946;6.954;2022-10-16T04:57:50;15.30;99.90
5130;DHT22;2583;50.946;6.954;2022-10-16T05:00:17;15.30;99.90
5130;DHT22;2583;50.946;6.954;2022-10-16T05:02:44;15.30;99.90
5130;DHT22;2583;50.946;6.954;2022-10-16T05:05:10;15.30;99.90
5130;DHT22;2583;50.946;6.954;2022-10-16T05:07:38;15.30;99.90
5130;DHT22;2583;50.946;6.954;2022-10-16T05:10:05;15.30;99.90
5130;DHT22;2583;50.946;6.954;2022-10-16T05:12:32;15.30;99.90
5130;DHT22;2583;50.946;6.954;2022-10-16T05:14:58;15.30;99.90
5130;DHT22;2583;50.946;6.954;2022-10-16T05:17:26;15.30;99.90
5130;DHT22;2583;50.946;6.954;2022-10-16T05:19:53;15.30;99.90
5130;DHT22;2583;50.946;6.954;2022-10-16T05:22:20;15.30;99.90
5130;DHT22;2583;50.946;6.954;2022-10-16T05:24:47;15.40;99.90
5130;DHT22;2583;50.946;6.954;2022-10-16T05:27:14;15.40;99.90
5130;DHT22;2583;50.946;6.954;2022-10-16T05:29:46;15.40;99.90
5130;DHT22;2583;50.946;6.954;2022-10-16T05:32:17;15.40;99.90
5130;DHT22;2583;50.946;6.954;2022-10-16T05:34:44;15.40;99.90
5130;DHT22;2583;50.946;6.954;2022-10-16T05:37:11;15.40;99.90
5130;DHT22;2583;50.946;6.954;2022-10-16T05:39:39;15.40;99.90
5130;DHT22;2583;50.946;6.954;2022-10-16T05:42:06;15.40;99.90
5130;DHT22;2583;50.946;6.954;2022-10-16T05:44:33;15.30;99.90
5130;DHT22;2583;50.946;6.954;2022-10-16T05:47:04;15.40;99.90
5130;DHT22;2583;50.946;6.954;2022-10-16T05:49:31;15.30;99.90
5130;DHT22;2583;50.946;6.954;2022-10-16T05:51:58;15.30;99.90
5130;DHT22;2583;50.946;6.954;2022-10-16T05:54:24;15.30;99.90
5130;DHT22;2583;50.946;6.954;2022-10-16T05:56:51;15.30;99.90
5130;DHT22;2583;50.946;6.954;2022-10-16T05:59:18;15.20;99.90
5130;DHT22;2583;50.946;6.954;2022-10-16T06:01:45;15.20;99.90
5130;DHT22;2583;50.946;6.954;2022-10-16T06:04:11;15.20;99.90
5130;DHT22;2583;50.946;6.954;2022-10-16T06:06:38;15.20;99.90
5130;DHT22;2583;50.946;6.954;2022-10-16T06:09:05;15.20;99.90
5130;DHT22;2583;50.946;6.954;2022-10-16T06:11:33;15.20;99.90
5130;DHT22;2583;50.946;6.954;2022-10-16T06:14:01;15.20;99.90
5130;DHT22;2583;50.946;6.954;2022-10-16T06:16:29;15.20;99.90
5130;DHT22;2583;50.946;6.954;2022-10-16T06:18:56;15.20;99.90
5130;DHT22;2583;50.946;6.954;2022-10-16T06:21:24;15.20;99.90
5130;DHT22;2583;50.946;6.954;2022-10-16T06:23:52;15.20;99.90
5130;DHT22;2583;50.946;6.954;2022-10-16T06:26:21;15.30;99.90
5130;DHT22;2583;50.946;6.954;2022-10-16T06:28:49;15.30;99.90
5130;DHT22;2583;50.946;6.954;2022-10-16T06:31:17;15.30;99.90
5130;DHT22;2583;50.946;6.954;2022-10-16T06:33:44;15.30;99.90
5130;DHT22;2583;50.946;6.954;2022-10-16T06:36:16;15.30;99.90
5130;DHT22;2583;50.946;6.954;2022-10-16T06:38:44;15.40;99.90
5130;DHT22;2583;50.946;6.954;2022-10-16T06:41:15;15.40;99.90
5130;DHT22;2583;50.946;6.954;2022-10-16T06:43:43;15.40;99.90
5130;DHT22;2583;50.946;6.954;2022-10-16T06:46:14;15.50;99.90
5130;DHT22;2583;50.946;6.954;2022-10-16T06:48:41;15.50;99.90
5130;DHT22;2583;50.946;6.954;2022-10-16T06:51:20;15.60;99.90
5130;DHT22;2583;50.946;6.954;2022-10-16T06:53:49;15.60;99.90
5130;DHT22;2583;50.946;6.954;2022-10-16T06:56:32;15.70;99.90
5130;DHT22;2583;50.946;6.954;2022-10-16T06:59:00;15.80;99.90
5130;DHT22;2583;50.946;6.954;2022-10-16T07:01:28;15.70;99.90
5130;DHT22;2583;50.946;6.954;2022-10-16T07:03:55;15.80;99.90
5130;DHT22;2583;50.946;6.954;2022-10-16T07:06:23;15.80;99.90
5130;DHT22;2583;50.946;6.954;2022-10-16T07:08:51;15.90;99.90
5130;DHT22;2583;50.946;6.954;2022-10-16T07:11:20;15.90;99.90
5130;DHT22;2583;50.946;6.954;2022-10-16T07:13:48;16.00;99.90
5130;DHT22;2583;50.946;6.954;2022-10-16T07:16:24;16.00;99.90
5130;DHT22;2583;50.946;6.954;2022-10-16T07:18:51;16.00;99.90
5130;DHT22;2583;50.946;6.954;2022-10-16T07:21:25;16.00;99.90
5130;DHT22;2583;50.946;6.954;2022-10-16T07:23:53;16.10;99.90
5130;DHT22;2583;50.946;6.954;2022-10-16T07:26:21;16.10;99.90
5130;DHT22;2583;50.946;6.954;2022-10-16T07:28:48;16.10;99.90
5130;DHT22;2583;50.946;6.954;2022-10-16T07:31:17;16.10;99.90
5130;DHT22;2583;50.946;6.954;2022-10-16T07:33:46;16.10;99.90
5130;DHT22;2583;50.946;6.954;2022-10-16T07:36:19;16.10;99.90
5130;DHT22;2583;50.946;6.954;2022-10-16T07:38:47;16.10;99.90
5130;DHT22;2583;50.946;6.954;2022-10-16T07:41:16;16.10;99.90
5130;DHT22;2583;50.946;6.954;2022-10-16T07:43:51;16.10;99.90
5130;DHT22;2583;50.946;6.954;2022-10-16T07:46:20;16.10;99.90
5130;DHT22;2583;50.946;6.954;2022-10-16T07:48:48;16.10;99.90
5130;DHT22;2583;50.946;6.954;2022-10-16T07:51:17;16.00;99.90
5130;DHT22;2583;50.946;6.954;2022-10-16T07:53:45;16.00;99.90
5130;DHT22;2583;50.946;6.954;2022-10-16T07:56:13;16.00;99.90
5130;DHT22;2583;50.946;6.954;2022-10-16T07:58:40;16.00;99.90
5130;DHT22;2583;50.946;6.954;2022-10-16T08:01:10;16.10;99.90
5130;DHT22;2583;50.946;6.954;2022-10-16T08:03:37;16.10;99.90
5130;DHT22;2583;50.946;6.954;2022-10-16T08:06:04;16.10;99.90
5130;DHT22;2583;50.946;6.954;2022-10-16T08:08:31;16.10;99.90
5130;DHT22;2583;50.946;6.954;2022-10-16T08:10:58;16.10;99.90
5130;DHT22;2583;50.946;6.954;2022-10-16T08:13:25;16.20;99.90
5130;DHT22;2583;50.946;6.954;2022-10-16T08:15:54;16.30;99.90
5130;DHT22;2583;50.946;6.954;2022-10-16T08:18:21;16.30;99.90
5130;DHT22;2583;50.946;6.954;2022-10-16T08:20:54;16.40;99.90
5130;DHT22;2583;50.946;6.954;2022-10-16T08:23:21;16.50;99.90
5130;DHT22;2583;50.946;6.954;2022-10-16T08:25:48;16.70;99.90
5130;DHT22;2583;50.946;6.954;2022-10-16T08:28:14;17.00;99.90
5130;DHT22;2583;50.946;6.954;2022-10-16T08:30:42;17.00;99.90
5130;DHT22;2583;50.946;6.954;2022-10-16T08:33:08;17.20;99.90
5130;DHT22;2583;50.946;6.954;2022-10-16T08:35:35;17.30;99.90
5130;DHT22;2583;50.946;6.954;2022-10-16T08:38:06;17.50;99.90
5130;DHT22;2583;50.946;6.954;2022-10-16T08:40:35;17.60;99.90
5130;DHT22;2583;50.946;6.954;2022-10-16T08:48:59;17.80;99.90
5130;DHT22;2583;50.946;6.954;2022-10-16T08:51:32;17.80;99.90
5130;DHT22;2583;50.946;6.954;2022-10-16T08:54:06;17.90;99.90
5130;DHT22;2583;50.946;6.954;2022-10-16T08:56:35;17.90;99.90
5130;DHT22;2583;50.946;6.954;2022-10-16T08:59:06;18.10;99.90
5130;DHT22;2583;50.946;6.954;2022-10-16T09:01:44;18.20;99.90
5130;DHT22;2583;50.946;6.954;2022-10-16T09:20:50;18.60;99.70
5130;DHT22;2583;50.946;6.954;2022-10-16T09:23:32;18.70;98.30
5130;DHT22;2583;50.946;6.954;2022-10-16T09:26:01;18.80;94.40
5130;DHT22;2583;50.946;6.954;2022-10-16T09:28:29;18.90;96.70
5130;DHT22;2583;50.946;6.954;2022-10-16T09:30:56;18.80;97.40
5130;DHT22;2583;50.946;6.954;2022-10-16T09:33:30;19.00;97.30
5130;DHT22;2583;50.946;6.954;2022-10-16T09:35:59;19.00;97.30
5130;DHT22;2583;50.946;6.954;2022-10-16T09:38:30;19.10;93.80
5130;DHT22;2583;50.946;6.954;2022-10-16T09:41:03;19.00;93.70
5130;DHT22;2583;50.946;6.954;2022-10-16T09:43:48;19.10;94.30
5130;DHT22;2583;50.946;6.954;2022-10-16T09:46:26;19.10;88.10
5130;DHT22;2583;50.946;6.954;2022-10-16T09:48:59;19.20;77.20
5130;DHT22;2583;50.946;6.954;2022-10-16T09:51:35;19.40;73.30
5130;DHT22;2583;50.946;6.954;2022-10-16T09:56:36;19.40;67.20
5130;DHT22;2583;50.946;6.954;2022-10-16T09:59:13;19.50;66.70
5130;DHT22;2583;50.946;6.954;2022-10-16T10:01:44;19.70;66.50
5130;DHT22;2583;50.946;6.954;2022-10-16T10:04:12;19.70;61.60
5130;DHT22;2583;50.946;6.954;2022-10-16T10:06:49;19.80;59.90
5130;DHT22;2583;50.946;6.954;2022-10-16T10:09:29;19.90;60.00
5130;DHT22;2583;50.946;6.954;2022-10-16T10:19:28;19.80;58.80
5130;DHT22;2583;50.946;6.954;2022-10-16T10:21:58;19.80;58.70
5130;DHT22;2583;50.946;6.954;2022-10-16T10:24:25;20.00;57.70
5130;DHT22;2583;50.946;6.954;2022-10-16T10:27:10;20.00;55.10
5130;DHT22;2583;50.946;6.954;2022-10-16T10:29:57;20.20;54.00
5130;DHT22;2583;50.946;6.954;2022-10-16T10:35:14;20.10;52.60
5130;DHT22;2583;50.946;6.954;2022-10-16T10:38:02;20.00;54.50
5130;DHT22;2583;50.946;6.954;2022-10-16T10:41:19;19.90;55.00
5130;DHT22;2583;50.946;6.954;2022-10-16T10:46:51;19.90;55.00
5130;DHT22;2583;50.946;6.954;2022-10-16T10:49:31;20.00;56.70
5130;DHT22;2583;50.946;6.954;2022-10-16T10:58:03;20.20;54.60
5130;DHT22;2583;50.946;6.954;2022-10-16T11:03:35;20.50;51.30
5130;DHT22;2583;50.946;6.954;2022-10-16T11:06:07;20.60;50.40
5130;DHT22;2583;50.946;6.954;2022-10-16T11:08:49;20.60;49.40
5130;DHT22;2583;50.946;6.954;2022-10-16T11:11:43;20.70;46.80
5130;DHT22;2583;50.946;6.954;2022-10-16T11:14:22;20.60;46.90
5130;DHT22;2583;50.946;6.954;2022-10-16T11:16:57;20.60;45.80
5130;DHT22;2583;50.946;6.954;2022-10-16T11:19:51;20.50;45.70
5130;DHT22;2583;50.946;6.954;2022-10-16T11:25:29;20.50;45.60
5130;DHT22;2583;50.946;6.954;2022-10-16T11:28:19;20.70;44.70
5130;DHT22;2583;50.946;6.954;2022-10-16T11:31:08;20.80;45.30
5130;DHT22;2583;50.946;6.954;2022-10-16T11:33:42;20.80;44.20
5130;DHT22;2583;50.946;6.954;2022-10-16T11:36:17;20.80;44.20
5130;DHT22;2583;50.946;6.954;2022-10-16T11:38:50;20.70;43.60
5130;DHT22;2583;50.946;6.954;2022-10-16T11:50:09;20.80;43.50
5130;DHT22;2583;50.946;6.954;2022-10-16T11:52:48;21.00;42.80
5130;DHT22;2583;50.946;6.954;2022-10-16T11:55:20;20.90;42.20
5130;DHT22;2583;50.946;6.954;2022-10-16T11:57:52;20.90;43.30
5130;DHT22;2583;50.946;6.954;2022-10-16T12:00:24;21.00;43.80
5130;DHT22;2583;50.946;6.954;2022-10-16T12:03:17;21.10;43.10
5130;DHT22;2583;50.946;6.954;2022-10-16T12:08:45;21.10;39.70
5130;DHT22;2583;50.946;6.954;2022-10-16T12:14:03;21.30;39.20
5130;DHT22;2583;50.946;6.954;2022-10-16T12:16:29;21.20;39.90
5130;DHT22;2583;50.946;6.954;2022-10-16T12:19:15;21.40;40.10
5130;DHT22;2583;50.946;6.954;2022-10-16T12:21:44;21.50;37.50
5130;DHT22;2583;50.946;6.954;2022-10-16T12:24:37;21.80;36.60
5130;DHT22;2583;50.946;6.954;2022-10-16T12:27:17;21.80;36.80
5130;DHT22;2583;50.946;6.954;2022-10-16T12:29:46;21.90;37.30
5130;DHT22;2583;50.946;6.954;2022-10-16T12:35:35;22.00;35.60
5130;DHT22;2583;50.946;6.954;2022-10-16T12:41:04;22.30;33.30
5130;DHT22;2583;50.946;6.954;2022-10-16T12:46:05;22.70;33.90
5130;DHT22;2583;50.946;6.954;2022-10-16T12:48:32;22.50;33.40
5130;DHT22;2583;50.946;6.954;2022-10-16T12:51:35;22.40;33.70
5130;DHT22;2583;50.946;6.954;2022-10-16T12:54:09;22.20;33.10
5130;DHT22;2583;50.946;6.954;2022-10-16T13:07:36;21.50;36.00
5130;DHT22;2583;50.946;6.954;2022-10-16T13:10:41;21.50;36.00
5130;DHT22;2583;50.946;6.954;2022-10-16T13:19:08;21.70;36.20
5130;DHT22;2583;50.946;6.954;2022-10-16T13:27:12;21.50;37.30
5130;DHT22;2583;50.946;6.954;2022-10-16T13:29:41;21.50;37.40
5130;DHT22;2583;50.946;6.954;2022-10-16T13:32:10;21.40;38.40
5130;DHT22;2583;50.946;6.954;2022-10-16T13:34:48;21.40;37.80
5130;DHT22;2583;50.946;6.954;2022-10-16T13:37:20;21.40;38.20
5130;DHT22;2583;50.946;6.954;2022-10-16T13:39:47;21.40;37.70
5130;DHT22;2583;50.946;6.954;2022-10-16T13:42:23;21.50;37.70
5130;DHT22;2583;50.946;6.954;2022-10-16T13:44:55;21.50;37.60
5130;DHT22;2583;50.946;6.954;2022-10-16T13:47:24;21.50;37.60
5130;DHT22;2583;50.946;6.954;2022-10-16T13:50:09;21.70;37.60
5130;DHT22;2583;50.946;6.954;2022-10-16T13:52:37;22.70;35.80
5130;DHT22;2583;50.946;6.954;2022-10-16T13:55:15;23.00;35.40
5130;DHT22;2583;50.946;6.954;2022-10-16T13:57:43;22.80;33.20
5130;DHT22;2583;50.946;6.954;2022-10-16T14:00:26;22.70;35.60
5130;DHT22;2583;50.946;6.954;2022-10-16T14:03:15;22.60;34.20
5130;DHT22;2583;50.946;6.954;2022-10-16T14:05:47;22.50;34.20
5130;DHT22;2583;50.946;6.954;2022-10-16T14:08:16;22.50;35.20
5130;DHT22;2583;50.946;6.954;2022-10-16T14:10:48;22.40;35.30
5130;DHT22;2583;50.946;6.954;2022-10-16T14:13:43;22.20;35.10
5130;DHT22;2583;50.946;6.954;2022-10-16T14:16:16;22.00;36.00
5130;DHT22;2583;50.946;6.954;2022-10-16T14:18:49;21.90;37.10
5130;DHT22;2583;50.946;6.954;2022-10-16T14:21:24;21.70;37.40
5130;DHT22;2583;50.946;6.954;2022-10-16T14:23:51;21.60;38.20
5130;DHT22;2583;50.946;6.954;2022-10-16T14:26:21;21.50;39.00
5130;DHT22;2583;50.946;6.954;2022-10-16T14:29:00;21.50;39.60
5130;DHT22;2583;50.946;6.954;2022-10-16T14:33:57;21.30;40.70
5130;DHT22;2583;50.946;6.954;2022-10-16T14:36:25;21.40;41.30
5130;DHT22;2583;50.946;6.954;2022-10-16T14:38:59;21.30;41.90
5130;DHT22;2583;50.946;6.954;2022-10-16T14:41:28;21.30;42.20
5130;DHT22;2583;50.946;6.954;2022-10-16T14:43:58;21.30;43.00
5130;DHT22;2583;50.946;6.954;2022-10-16T14:46:36;21.30;44.10
5130;DHT22;2583;50.946;6.954;2022-10-16T14:49:15;21.20;44.50
5130;DHT22;2583;50.946;6.954;2022-10-16T14:51:42;21.20;45.00
5130;DHT22;2583;50.946;6.954;2022-10-16T14:54:20;21.20;46.10
5130;DHT22;2583;50.946;6.954;2022-10-16T14:56:54;21.20;46.00
5130;DHT22;2583;50.946;6.954;2022-10-16T14:59:34;21.10;46.90
5130;DHT22;2583;50.946;6.954;2022-10-16T15:04:40;21.00;49.70
5130;DHT22;2583;50.946;6.954;2022-10-16T15:07:07;20.90;51.40
5130;DHT22;2583;50.946;6.954;2022-10-16T15:09:34;20.90;52.70
5130;DHT22;2583;50.946;6.954;2022-10-16T15:12:01;20.80;54.10
5130;DHT22;2583;50.946;6.954;2022-10-16T15:14:28;20.80;57.20
5130;DHT22;2583;50.946;6.954;2022-10-16T15:16:55;20.70;57.60
5130;DHT22;2583;50.946;6.954;2022-10-16T15:19:22;20.80;59.10
5130;DHT22;2583;50.946;6.954;2022-10-16T15:21:48;20.70;61.40
5130;DHT22;2583;50.946;6.954;2022-10-16T15:24:15;20.70;64.40
5130;DHT22;2583;50.946;6.954;2022-10-16T15:26:47;20.70;67.10
5130;DHT22;2583;50.946;6.954;2022-10-16T15:29:15;20.60;68.30
5130;DHT22;2583;50.946;6.954;2022-10-16T15:31:42;20.60;71.50
5130;DHT22;2583;50.946;6.954;2022-10-16T15:34:09;20.60;73.20
5130;DHT22;2583;50.946;6.954;2022-10-16T15:36:37;20.50;74.00
5130;DHT22;2583;50.946;6.954;2022-10-16T15:39:05;20.50;76.10
5130;DHT22;2583;50.946;6.954;2022-10-16T15:41:36;20.50;78.80
5130;DHT22;2583;50.946;6.954;2022-10-16T15:44:03;20.40;80.50
5130;DHT22;2583;50.946;6.954;2022-10-16T15:46:30;20.40;81.30
5130;DHT22;2583;50.946;6.954;2022-10-16T15:48:58;20.40;82.20
5130;DHT22;2583;50.946;6.954;2022-10-16T15:51:26;20.40;85.90
5130;DHT22;2583;50.946;6.954;2022-10-16T15:53:56;20.30;85.50
5130;DHT22;2583;50.946;6.954;2022-10-16T15:56:23;20.30;87.20
5130;DHT22;2583;50.946;6.954;2022-10-16T15:58:52;20.30;90.90
5130;DHT22;2583;50.946;6.954;2022-10-16T16:01:20;20.30;90.50
5130;DHT22;2583;50.946;6.954;2022-10-16T16:03:52;20.20;91.60
5130;DHT22;2583;50.946;6.954;2022-10-16T16:06:19;20.20;93.40
5130;DHT22;2583;50.946;6.954;2022-10-16T16:08:46;20.20;93.30
5130;DHT22;2583;50.946;6.954;2022-10-16T16:11:15;20.10;94.40
5130;DHT22;2583;50.946;6.954;2022-10-16T16:13:42;20.10;94.50
5130;DHT22;2583;50.946;6.954;2022-10-16T16:16:12;20.00;95.60
5130;DHT22;2583;50.946;6.954;2022-10-16T16:18:40;20.00;95.20
5130;DHT22;2583;50.946;6.954;2022-10-16T16:21:07;20.00;96.30
5130;DHT22;2583;50.946;6.954;2022-10-16T16:23:35;19.90;96.90
5130;DHT22;2583;50.946;6.954;2022-10-16T16:26:14;19.80;97.70
5130;DHT22;2583;50.946;6.954;2022-10-16T16:28:42;19.80;98.70
5130;DHT22;2583;50.946;6.954;2022-10-16T16:31:09;19.80;99.00
5130;DHT22;2583;50.946;6.954;2022-10-16T16:33:36;19.70;99.70
5130;DHT22;2583;50.946;6.954;2022-10-16T16:36:04;19.70;99.90
5130;DHT22;2583;50.946;6.954;2022-10-16T16:38:40;19.70;99.90
5130;DHT22;2583;50.946;6.954;2022-10-16T16:41:21;19.60;99.90
5130;DHT22;2583;50.946;6.954;2022-10-16T16:43:48;19.60;99.90
5130;DHT22;2583;50.946;6.954;2022-10-16T16:46:15;19.50;99.90
5130;DHT22;2583;50.946;6.954;2022-10-16T16:48:42;19.40;99.90
5130;DHT22;2583;50.946;6.954;2022-10-16T16:51:11;19.40;99.90
5130;DHT22;2583;50.946;6.954;2022-10-16T16:53:42;19.40;99.90
5130;DHT22;2583;50.946;6.954;2022-10-16T16:56:10;19.30;99.90
5130;DHT22;2583;50.946;6.954;2022-10-16T16:58:37;19.30;99.90
5130;DHT22;2583;50.946;6.954;2022-10-16T17:01:04;19.30;99.90
5130;DHT22;2583;50.946;6.954;2022-10-16T17:03:48;19.20;99.90
5130;DHT22;2583;50.946;6.954;2022-10-16T17:06:17;19.20;99.90
5130;DHT22;2583;50.946;6.954;2022-10-16T17:08:47;19.20;99.90
5130;DHT22;2583;50.946;6.954;2022-10-16T17:11:22;19.20;99.90
5130;DHT22;2583;50.946;6.954;2022-10-16T17:13:50;19.10;99.90
5130;DHT22;2583;50.946;6.954;2022-10-16T17:16:31;19.20;99.90
5130;DHT22;2583;50.946;6.954;2022-10-16T17:19:02;19.10;99.90
5130;DHT22;2583;50.946;6.954;2022-10-16T17:21:29;19.10;99.90
5130;DHT22;2583;50.946;6.954;2022-10-16T17:23:57;19.10;99.90
5130;DHT22;2583;50.946;6.954;2022-10-16T17:26:24;19.00;99.90
5130;DHT22;2583;50.946;6.954;2022-10-16T17:28:53;19.00;99.90
5130;DHT22;2583;50.946;6.954;2022-10-16T17:31:23;19.00;99.90
5130;DHT22;2583;50.946;6.954;2022-10-16T17:33:51;19.00;99.90
5130;DHT22;2583;50.946;6.954;2022-10-16T17:36:19;19.00;99.90
5130;DHT22;2583;50.946;6.954;2022-10-16T17:38:47;19.00;99.90
5130;DHT22;2583;50.946;6.954;2022-10-16T17:41:20;19.00;99.90
5130;DHT22;2583;50.946;6.954;2022-10-16T17:43:48;19.00;99.90
5130;DHT22;2583;50.946;6.954;2022-10-16T17:46:17;19.00;99.90
5130;DHT22;2583;50.946;6.954;2022-10-16T17:48:47;18.90;99.90
5130;DHT22;2583;50.946;6.954;2022-10-16T17:51:17;18.90;99.90
5130;DHT22;2583;50.946;6.954;2022-10-16T17:53:48;18.80;99.90
5130;DHT22;2583;50.946;6.954;2022-10-16T17:56:15;18.80;99.90
5130;DHT22;2583;50.946;6.954;2022-10-16T17:58:42;18.80;99.90
5130;DHT22;2583;50.946;6.954;2022-10-16T18:01:35;18.90;99.90
5130;DHT22;2583;50.946;6.954;2022-10-16T18:04:07;18.80;99.90
5130;DHT22;2583;50.946;6.954;2022-10-16T18:06:37;18.80;99.90
5130;DHT22;2583;50.946;6.954;2022-10-16T18:09:05;18.80;99.90
5130;DHT22;2583;50.946;6.954;2022-10-16T18:11:33;18.80;99.90
5130;DHT22;2583;50.946;6.954;2022-10-16T18:14:01;18.80;99.90
5130;DHT22;2583;50.946;6.954;2022-10-16T18:16:28;18.70;99.90